sensor_id;sensor_type;location;lat;lon;timestamp;P1;durP1;ratioP1;P2;durP2;ratioP2
21589;SDS011;10957;50.968;6.828;2023-08-24T00:01:44;3.03;;;2.80;;
21589;SDS011;10957;50.968;6.828;2023-08-24T00:06:46;2.08;;;1.98;;
21589;SDS011;10957;50.968;6.828;2023-08-24T00:11:47;2.30;;;2.20;;
21589;SDS011;10957;50.968;6.828;2023-08-24T00:16:49;2.20;;;2.00;;
21589;SDS011;10957;50.968;6.828;2023-08-24T00:21:50;2.15;;;2.05;;
21589;SDS011;10957;50.968;6.828;2023-08-24T00:26:51;2.20;;;2.10;;
21589;SDS011;10957;50.968;6.828;2023-08-24T00:31:52;2.20;;;2.10;;
21589;SDS011;10957;50.968;6.828;2023-08-24T00:36:54;2.40;;;2.30;;
21589;SDS011;10957;50.968;6.828;2023-08-24T00:41:55;2.00;;;1.90;;
21589;SDS011;10957;50.968;6.828;2023-08-24T00:46:56;2.05;;;1.95;;
21589;SDS011;10957;50.968;6.828;2023-08-24T00:51:58;2.28;;;2.17;;
21589;SDS011;10957;50.968;6.828;2023-08-24T00:56:59;2.08;;;1.98;;
21589;SDS011;10957;50.968;6.828;2023-08-24T01:02:01;2.10;;;2.00;;
21589;SDS011;10957;50.968;6.828;2023-08-24T01:07:04;2.10;;;2.00;;
21589;SDS011;10957;50.968;6.828;2023-08-24T01:12:23;2.30;;;2.17;;
21589;SDS011;10957;50.968;6.828;2023-08-24T01:17:35;2.25;;;2.15;;
21589;SDS011;10957;50.968;6.828;2023-08-24T01:27:44;2.53;;;2.33;;
21589;SDS011;10957;50.968;6.828;2023-08-24T01:32:48;2.40;;;2.30;;
21589;SDS011;10957;50.968;6.828;2023-08-24T01:37:50;2.00;;;1.90;;
21589;SDS011;10957;50.968;6.828;2023-08-24T01:42:52;2.55;;;2.45;;
21589;SDS011;10957;50.968;6.828;2023-08-24T01:48:04;2.15;;;2.05;;
21589;SDS011;10957;50.968;6.828;2023-08-24T01:53:08;2.28;;;2.17;;
21589;SDS011;10957;50.968;6.828;2023-08-24T01:58:10;2.03;;;1.92;;
21589;SDS011;10957;50.968;6.828;2023-08-24T02:03:11;3.28;;;2.95;;
21589;SDS011;10957;50.968;6.828;2023-08-24T02:08:12;2.13;;;2.03;;
21589;SDS011;10957;50.968;6.828;2023-08-24T02:13:14;2.72;;;2.53;;
21589;SDS011;10957;50.968;6.828;2023-08-24T02:18:15;2.72;;;2.63;;
21589;SDS011;10957;50.968;6.828;2023-08-24T02:23:16;3.17;;;2.90;;
21589;SDS011;10957;50.968;6.828;2023-08-24T02:28:17;2.47;;;2.38;;
21589;SDS011;10957;50.968;6.828;2023-08-24T02:33:19;2.65;;;2.55;;
21589;SDS011;10957;50.968;6.828;2023-08-24T02:43:25;3.55;;;3.25;;
21589;SDS011;10957;50.968;6.828;2023-08-24T02:48:27;2.92;;;2.72;;
21589;SDS011;10957;50.968;6.828;2023-08-24T02:53:28;2.40;;;2.30;;
21589;SDS011;10957;50.968;6.828;2023-08-24T02:58:30;3.13;;;2.92;;
21589;SDS011;10957;50.968;6.828;2023-08-24T03:03:31;2.17;;;2.08;;
21589;SDS011;10957;50.968;6.828;2023-08-24T03:08:33;2.75;;;2.65;;
21589;SDS011;10957;50.968;6.828;2023-08-24T03:13:36;3.35;;;3.15;;
21589;SDS011;10957;50.968;6.828;2023-08-24T03:18:41;3.15;;;3.05;;
21589;SDS011;10957;50.968;6.828;2023-08-24T03:23:42;3.13;;;3.03;;
21589;SDS011;10957;50.968;6.828;2023-08-24T03:28:44;2.97;;;2.88;;
21589;SDS011;10957;50.968;6.828;2023-08-24T03:33:45;2.90;;;2.80;;
21589;SDS011;10957;50.968;6.828;2023-08-24T03:38:47;3.28;;;3.10;;
21589;SDS011;10957;50.968;6.828;2023-08-24T03:43:48;3.15;;;2.97;;
21589;SDS011;10957;50.968;6.828;2023-08-24T03:48:50;2.97;;;2.88;;
21589;SDS011;10957;50.968;6.828;2023-08-24T03:53:52;3.17;;;2.97;;
21589;SDS011;10957;50.968;6.828;2023-08-24T03:58:53;2.72;;;2.63;;
21589;SDS011;10957;50.968;6.828;2023-08-24T04:03:55;3.67;;;3.35;;
21589;SDS011;10957;50.968;6.828;2023-08-24T04:08:56;3.10;;;2.90;;
21589;SDS011;10957;50.968;6.828;2023-08-24T04:13:58;2.60;;;2.50;;
21589;SDS011;10957;50.968;6.828;2023-08-24T04:18:59;2.83;;;2.72;;
21589;SDS011;10957;50.968;6.828;2023-08-24T04:24:00;3.25;;;3.15;;
21589;SDS011;10957;50.968;6.828;2023-08-24T04:29:02;3.20;;;3.10;;
21589;SDS011;10957;50.968;6.828;2023-08-24T04:34:03;2.78;;;2.60;;
21589;SDS011;10957;50.968;6.828;2023-08-24T04:39:05;3.05;;;2.85;;
21589;SDS011;10957;50.968;6.828;2023-08-24T04:44:06;2.58;;;2.47;;
21589;SDS011;10957;50.968;6.828;2023-08-24T04:49:08;3.22;;;3.00;;
21589;SDS011;10957;50.968;6.828;2023-08-24T04:54:10;6.13;;;3.55;;
21589;SDS011;10957;50.968;6.828;2023-08-24T04:59:11;3.50;;;3.20;;
21589;SDS011;10957;50.968;6.828;2023-08-24T05:04:12;3.90;;;3.67;;
21589;SDS011;10957;50.968;6.828;2023-08-24T05:09:14;2.88;;;2.78;;
21589;SDS011;10957;50.968;6.828;2023-08-24T05:14:15;2.78;;;2.67;;
21589;SDS011;10957;50.968;6.828;2023-08-24T05:19:17;3.30;;;3.10;;
21589;SDS011;10957;50.968;6.828;2023-08-24T05:24:18;3.75;;;3.55;;
21589;SDS011;10957;50.968;6.828;2023-08-24T05:29:19;3.15;;;3.03;;
21589;SDS011;10957;50.968;6.828;2023-08-24T05:34:20;2.78;;;2.58;;
21589;SDS011;10957;50.968;6.828;2023-08-24T05:39:22;4.35;;;3.50;;
21589;SDS011;10957;50.968;6.828;2023-08-24T05:44:23;2.70;;;2.60;;
21589;SDS011;10957;50.968;6.828;2023-08-24T05:49:24;2.50;;;2.40;;
21589;SDS011;10957;50.968;6.828;2023-08-24T05:54:26;2.90;;;2.78;;
21589;SDS011;10957;50.968;6.828;2023-08-24T05:59:27;3.10;;;2.90;;
21589;SDS011;10957;50.968;6.828;2023-08-24T06:04:28;3.42;;;3.22;;
21589;SDS011;10957;50.968;6.828;2023-08-24T06:09:30;2.55;;;2.45;;
21589;SDS011;10957;50.968;6.828;2023-08-24T06:14:32;2.90;;;2.80;;
21589;SDS011;10957;50.968;6.828;2023-08-24T06:19:33;2.50;;;2.40;;
21589;SDS011;10957;50.968;6.828;2023-08-24T06:24:35;3.30;;;3.10;;
21589;SDS011;10957;50.968;6.828;2023-08-24T06:29:36;3.60;;;3.33;;
21589;SDS011;10957;50.968;6.828;2023-08-24T06:34:37;5.97;;;4.20;;
21589;SDS011;10957;50.968;6.828;2023-08-24T06:39:39;8.55;;;4.97;;
21589;SDS011;10957;50.968;6.828;2023-08-24T06:44:40;4.55;;;4.15;;
21589;SDS011;10957;50.968;6.828;2023-08-24T06:49:41;3.90;;;3.47;;
21589;SDS011;10957;50.968;6.828;2023-08-24T06:54:43;3.50;;;3.17;;
21589;SDS011;10957;50.968;6.828;2023-08-24T06:59:44;3.50;;;3.10;;
21589;SDS011;10957;50.968;6.828;2023-08-24T07:04:45;2.90;;;2.75;;
21589;SDS011;10957;50.968;6.828;2023-08-24T07:09:47;5.03;;;3.70;;
21589;SDS011;10957;50.968;6.828;2023-08-24T07:14:48;3.33;;;3.13;;
21589;SDS011;10957;50.968;6.828;2023-08-24T07:19:49;2.83;;;2.72;;
21589;SDS011;10957;50.968;6.828;2023-08-24T07:24:51;3.05;;;2.85;;
21589;SDS011;10957;50.968;6.828;2023-08-24T07:29:53;3.15;;;2.95;;
21589;SDS011;10957;50.968;6.828;2023-08-24T07:34:54;3.17;;;2.97;;
21589;SDS011;10957;50.968;6.828;2023-08-24T07:39:55;3.15;;;2.95;;
21589;SDS011;10957;50.968;6.828;2023-08-24T07:44:56;3.05;;;2.92;;
21589;SDS011;10957;50.968;6.828;2023-08-24T07:49:59;3.08;;;2.97;;
21589;SDS011;10957;50.968;6.828;2023-08-24T07:55:00;3.47;;;3.28;;
21589;SDS011;10957;50.968;6.828;2023-08-24T08:00:04;3.20;;;2.90;;
21589;SDS011;10957;50.968;6.828;2023-08-24T08:05:13;2.67;;;2.58;;
21589;SDS011;10957;50.968;6.828;2023-08-24T08:10:14;2.90;;;2.80;;
21589;SDS011;10957;50.968;6.828;2023-08-24T08:15:20;3.33;;;3.22;;
21589;SDS011;10957;50.968;6.828;2023-08-24T08:20:22;3.70;;;3.50;;
21589;SDS011;10957;50.968;6.828;2023-08-24T08:25:23;3.30;;;3.20;;
21589;SDS011;10957;50.968;6.828;2023-08-24T08:30:24;3.47;;;3.25;;
21589;SDS011;10957;50.968;6.828;2023-08-24T08:35:26;3.80;;;3.60;;
21589;SDS011;10957;50.968;6.828;2023-08-24T08:40:27;3.83;;;3.53;;
21589;SDS011;10957;50.968;6.828;2023-08-24T08:45:31;3.38;;;3.28;;
21589;SDS011;10957;50.968;6.828;2023-08-24T08:50:32;7.65;;;4.63;;
21589;SDS011;10957;50.968;6.828;2023-08-24T08:55:36;3.88;;;3.67;;
21589;SDS011;10957;50.968;6.828;2023-08-24T09:00:37;4.22;;;4.03;;
21589;SDS011;10957;50.968;6.828;2023-08-24T09:05:39;4.28;;;4.07;;
21589;SDS011;10957;50.968;6.828;2023-08-24T09:10:40;5.05;;;4.63;;
21589;SDS011;10957;50.968;6.828;2023-08-24T09:15:44;3.30;;;3.20;;
21589;SDS011;10957;50.968;6.828;2023-08-24T09:20:49;5.57;;;4.20;;
21589;SDS011;10957;50.968;6.828;2023-08-24T09:25:52;3.97;;;3.78;;
21589;SDS011;10957;50.968;6.828;2023-08-24T09:30:53;3.97;;;3.72;;
21589;SDS011;10957;50.968;6.828;2023-08-24T09:35:58;3.80;;;3.60;;
21589;SDS011;10957;50.968;6.828;2023-08-24T09:41:04;4.47;;;4.20;;
21589;SDS011;10957;50.968;6.828;2023-08-24T09:46:05;4.85;;;4.55;;
21589;SDS011;10957;50.968;6.828;2023-08-24T09:51:08;4.57;;;4.38;;
21589;SDS011;10957;50.968;6.828;2023-08-24T09:56:10;4.50;;;4.30;;
21589;SDS011;10957;50.968;6.828;2023-08-24T10:01:14;5.10;;;4.70;;
21589;SDS011;10957;50.968;6.828;2023-08-24T10:06:19;4.80;;;4.57;;
21589;SDS011;10957;50.968;6.828;2023-08-24T10:11:23;4.55;;;4.35;;
21589;SDS011;10957;50.968;6.828;2023-08-24T10:16:27;4.47;;;4.28;;
21589;SDS011;10957;50.968;6.828;2023-08-24T10:21:30;4.57;;;4.28;;
21589;SDS011;10957;50.968;6.828;2023-08-24T10:26:32;5.03;;;4.80;;
21589;SDS011;10957;50.968;6.828;2023-08-24T10:31:34;4.50;;;4.30;;
21589;SDS011;10957;50.968;6.828;2023-08-24T10:36:40;4.80;;;4.50;;
21589;SDS011;10957;50.968;6.828;2023-08-24T10:41:48;4.60;;;4.30;;
21589;SDS011;10957;50.968;6.828;2023-08-24T10:57:37;4.32;;;4.13;;
21589;SDS011;10957;50.968;6.828;2023-08-24T11:08:03;4.03;;;3.83;;
21589;SDS011;10957;50.968;6.828;2023-08-24T11:13:15;4.57;;;4.35;;
21589;SDS011;10957;50.968;6.828;2023-08-24T11:23:23;3.88;;;3.72;;
21589;SDS011;10957;50.968;6.828;2023-08-24T11:28:29;4.30;;;4.10;;
21589;SDS011;10957;50.968;6.828;2023-08-24T11:33:32;4.57;;;4.38;;
21589;SDS011;10957;50.968;6.828;2023-08-24T11:38:38;3.72;;;3.60;;
21589;SDS011;10957;50.968;6.828;2023-08-24T11:43:42;3.92;;;3.72;;
21589;SDS011;10957;50.968;6.828;2023-08-24T11:48:44;3.70;;;3.58;;
21589;SDS011;10957;50.968;6.828;2023-08-24T11:53:46;3.85;;;3.65;;
21589;SDS011;10957;50.968;6.828;2023-08-24T11:58:48;3.85;;;3.65;;
21589;SDS011;10957;50.968;6.828;2023-08-24T12:03:51;3.70;;;3.50;;
21589;SDS011;10957;50.968;6.828;2023-08-24T12:08:52;3.78;;;3.58;;
21589;SDS011;10957;50.968;6.828;2023-08-24T12:13:54;4.70;;;3.30;;
21589;SDS011;10957;50.968;6.828;2023-08-24T12:18:57;3.20;;;3.10;;
21589;SDS011;10957;50.968;6.828;2023-08-24T12:24:06;4.60;;;4.20;;
21589;SDS011;10957;50.968;6.828;2023-08-24T12:29:08;3.47;;;3.20;;
21589;SDS011;10957;50.968;6.828;2023-08-24T12:34:14;2.90;;;2.80;;
21589;SDS011;10957;50.968;6.828;2023-08-24T12:39:16;3.50;;;3.30;;
21589;SDS011;10957;50.968;6.828;2023-08-24T12:44:17;3.45;;;3.25;;
21589;SDS011;10957;50.968;6.828;2023-08-24T12:49:18;3.45;;;3.15;;
21589;SDS011;10957;50.968;6.828;2023-08-24T12:54:20;2.65;;;2.50;;
21589;SDS011;10957;50.968;6.828;2023-08-24T12:59:22;3.05;;;2.80;;
21589;SDS011;10957;50.968;6.828;2023-08-24T13:04:23;2.63;;;2.53;;
21589;SDS011;10957;50.968;6.828;2023-08-24T13:09:24;2.85;;;2.75;;
21589;SDS011;10957;50.968;6.828;2023-08-24T13:14:26;2.88;;;2.67;;
21589;SDS011;10957;50.968;6.828;2023-08-24T13:19:28;2.90;;;2.70;;
21589;SDS011;10957;50.968;6.828;2023-08-24T13:24:30;2.90;;;2.78;;
21589;SDS011;10957;50.968;6.828;2023-08-24T13:29:31;3.08;;;2.90;;
21589;SDS011;10957;50.968;6.828;2023-08-24T13:34:32;3.15;;;2.95;;
21589;SDS011;10957;50.968;6.828;2023-08-24T13:39:33;3.15;;;2.95;;
21589;SDS011;10957;50.968;6.828;2023-08-24T13:44:35;4.68;;;2.97;;
21589;SDS011;10957;50.968;6.828;2023-08-24T13:49:36;2.63;;;2.53;;
21589;SDS011;10957;50.968;6.828;2023-08-24T13:54:37;2.63;;;2.53;;
21589;SDS011;10957;50.968;6.828;2023-08-24T13:59:39;5.82;;;3.47;;
21589;SDS011;10957;50.968;6.828;2023-08-24T14:04:40;3.30;;;3.20;;
21589;SDS011;10957;50.968;6.828;2023-08-24T14:09:42;3.30;;;3.00;;
21589;SDS011;10957;50.968;6.828;2023-08-24T14:14:43;3.47;;;3.25;;
21589;SDS011;10957;50.968;6.828;2023-08-24T14:19:44;2.65;;;2.55;;
21589;SDS011;10957;50.968;6.828;2023-08-24T14:24:46;2.83;;;2.70;;
21589;SDS011;10957;50.968;6.828;2023-08-24T14:29:47;2.70;;;2.60;;
21589;SDS011;10957;50.968;6.828;2023-08-24T14:34:48;2.40;;;2.30;;
21589;SDS011;10957;50.968;6.828;2023-08-24T14:39:50;2.80;;;2.70;;
21589;SDS011;10957;50.968;6.828;2023-08-24T14:44:51;4.07;;;3.67;;
21589;SDS011;10957;50.968;6.828;2023-08-24T14:49:53;2.60;;;2.50;;
21589;SDS011;10957;50.968;6.828;2023-08-24T14:54:55;2.60;;;2.50;;
21589;SDS011;10957;50.968;6.828;2023-08-24T14:59:56;3.03;;;2.83;;
21589;SDS011;10957;50.968;6.828;2023-08-24T15:05:00;2.70;;;2.60;;
21589;SDS011;10957;50.968;6.828;2023-08-24T15:10:01;2.58;;;2.47;;
21589;SDS011;10957;50.968;6.828;2023-08-24T15:15:04;3.35;;;3.15;;
21589;SDS011;10957;50.968;6.828;2023-08-24T15:20:06;3.20;;;3.00;;
21589;SDS011;10957;50.968;6.828;2023-08-24T15:25:08;5.22;;;3.10;;
21589;SDS011;10957;50.968;6.828;2023-08-24T15:30:09;3.17;;;3.05;;
21589;SDS011;10957;50.968;6.828;2023-08-24T15:35:14;2.90;;;2.80;;
21589;SDS011;10957;50.968;6.828;2023-08-24T15:40:21;2.88;;;2.78;;
21589;SDS011;10957;50.968;6.828;2023-08-24T15:45:22;3.03;;;2.92;;
21589;SDS011;10957;50.968;6.828;2023-08-24T15:50:25;4.88;;;4.47;;
21589;SDS011;10957;50.968;6.828;2023-08-24T15:55:30;3.78;;;3.53;;
21589;SDS011;10957;50.968;6.828;2023-08-24T16:00:34;4.03;;;3.83;;
21589;SDS011;10957;50.968;6.828;2023-08-24T16:05:39;3.10;;;3.00;;
21589;SDS011;10957;50.968;6.828;2023-08-24T16:10:40;3.60;;;3.40;;
21589;SDS011;10957;50.968;6.828;2023-08-24T16:15:45;3.67;;;3.47;;
21589;SDS011;10957;50.968;6.828;2023-08-24T16:20:47;3.00;;;2.90;;
21589;SDS011;10957;50.968;6.828;2023-08-24T16:25:49;2.72;;;2.63;;
21589;SDS011;10957;50.968;6.828;2023-08-24T16:30:51;2.80;;;2.70;;
21589;SDS011;10957;50.968;6.828;2023-08-24T16:35:52;3.67;;;3.45;;
21589;SDS011;10957;50.968;6.828;2023-08-24T16:40:54;5.10;;;3.80;;
21589;SDS011;10957;50.968;6.828;2023-08-24T16:45:58;3.35;;;3.15;;
21589;SDS011;10957;50.968;6.828;2023-08-24T16:51:02;3.83;;;3.53;;
21589;SDS011;10957;50.968;6.828;2023-08-24T16:56:06;2.80;;;2.70;;
21589;SDS011;10957;50.968;6.828;2023-08-24T17:01:07;3.17;;;3.08;;
21589;SDS011;10957;50.968;6.828;2023-08-24T17:06:09;3.00;;;2.90;;
21589;SDS011;10957;50.968;6.828;2023-08-24T17:11:11;2.80;;;2.70;;
21589;SDS011;10957;50.968;6.828;2023-08-24T17:16:12;2.92;;;2.83;;
21589;SDS011;10957;50.968;6.828;2023-08-24T17:21:16;2.97;;;2.88;;
21589;SDS011;10957;50.968;6.828;2023-08-24T17:26:20;3.00;;;2.90;;
21589;SDS011;10957;50.968;6.828;2023-08-24T17:31:22;3.03;;;2.92;;
21589;SDS011;10957;50.968;6.828;2023-08-24T17:36:23;2.97;;;2.88;;
21589;SDS011;10957;50.968;6.828;2023-08-24T17:41:24;9.98;;;3.22;;
21589;SDS011;10957;50.968;6.828;2023-08-24T17:46:26;3.78;;;3.45;;
21589;SDS011;10957;50.968;6.828;2023-08-24T17:51:28;3.20;;;3.10;;
21589;SDS011;10957;50.968;6.828;2023-08-24T17:56:29;3.60;;;3.40;;
21589;SDS011;10957;50.968;6.828;2023-08-24T18:01:32;3.58;;;3.38;;
21589;SDS011;10957;50.968;6.828;2023-08-24T18:06:34;3.17;;;3.08;;
21589;SDS011;10957;50.968;6.828;2023-08-24T18:11:37;3.10;;;3.00;;
21589;SDS011;10957;50.968;6.828;2023-08-24T18:16:39;3.70;;;3.53;;
21589;SDS011;10957;50.968;6.828;2023-08-24T18:21:40;5.88;;;4.30;;
21589;SDS011;10957;50.968;6.828;2023-08-24T18:26:42;3.40;;;3.30;;
21589;SDS011;10957;50.968;6.828;2023-08-24T18:31:46;3.40;;;3.30;;
21589;SDS011;10957;50.968;6.828;2023-08-24T18:36:47;3.40;;;3.30;;
21589;SDS011;10957;50.968;6.828;2023-08-24T18:41:49;3.67;;;3.58;;
21589;SDS011;10957;50.968;6.828;2023-08-24T18:46:53;3.90;;;3.70;;
21589;SDS011;10957;50.968;6.828;2023-08-24T18:51:55;4.25;;;4.03;;
21589;SDS011;10957;50.968;6.828;2023-08-24T18:57:14;3.35;;;3.25;;
21589;SDS011;10957;50.968;6.828;2023-08-24T19:02:15;3.97;;;3.67;;
21589;SDS011;10957;50.968;6.828;2023-08-24T19:07:19;4.18;;;3.97;;
21589;SDS011;10957;50.968;6.828;2023-08-24T19:12:20;3.50;;;3.40;;
21589;SDS011;10957;50.968;6.828;2023-08-24T19:17:21;4.60;;;3.95;;
21589;SDS011;10957;50.968;6.828;2023-08-24T19:22:26;3.90;;;3.70;;
21589;SDS011;10957;50.968;6.828;2023-08-24T19:27:27;3.40;;;3.30;;
21589;SDS011;10957;50.968;6.828;2023-08-24T19:32:28;3.55;;;3.45;;
21589;SDS011;10957;50.968;6.828;2023-08-24T19:37:32;9.10;;;3.50;;
21589;SDS011;10957;50.968;6.828;2023-08-24T19:42:34;3.30;;;3.20;;
21589;SDS011;10957;50.968;6.828;2023-08-24T19:47:37;3.40;;;3.30;;
21589;SDS011;10957;50.968;6.828;2023-08-24T19:52:42;4.15;;;3.95;;
21589;SDS011;10957;50.968;6.828;2023-08-24T19:57:44;3.15;;;3.05;;
21589;SDS011;10957;50.968;6.828;2023-08-24T20:02:47;3.25;;;3.15;;
21589;SDS011;10957;50.968;6.828;2023-08-24T20:07:50;3.97;;;3.78;;
21589;SDS011;10957;50.968;6.828;2023-08-24T20:12:51;3.40;;;3.30;;
21589;SDS011;10957;50.968;6.828;2023-08-24T20:17:52;4.25;;;3.95;;
21589;SDS011;10957;50.968;6.828;2023-08-24T20:22:54;4.00;;;3.80;;
21589;SDS011;10957;50.968;6.828;2023-08-24T20:27:56;3.40;;;3.30;;
21589;SDS011;10957;50.968;6.828;2023-08-24T20:32:57;3.40;;;3.30;;
21589;SDS011;10957;50.968;6.828;2023-08-24T20:37:59;3.50;;;3.40;;
21589;SDS011;10957;50.968;6.828;2023-08-24T20:43:00;3.42;;;3.33;;
21589;SDS011;10957;50.968;6.828;2023-08-24T20:48:01;3.38;;;3.28;;
21589;SDS011;10957;50.968;6.828;2023-08-24T20:53:04;3.50;;;3.40;;
21589;SDS011;10957;50.968;6.828;2023-08-24T20:58:07;4.10;;;3.90;;
21589;SDS011;10957;50.968;6.828;2023-08-24T21:03:11;5.30;;;5.00;;
21589;SDS011;10957;50.968;6.828;2023-08-24T21:08:13;4.13;;;3.92;;
21589;SDS011;10957;50.968;6.828;2023-08-24T21:13:14;4.43;;;4.13;;
21589;SDS011;10957;50.968;6.828;2023-08-24T21:18:15;4.10;;;3.90;;
21589;SDS011;10957;50.968;6.828;2023-08-24T21:23:20;4.55;;;4.35;;
21589;SDS011;10957;50.968;6.828;2023-08-24T21:28:21;4.45;;;4.25;;
21589;SDS011;10957;50.968;6.828;2023-08-24T21:33:23;4.30;;;4.10;;
21589;SDS011;10957;50.968;6.828;2023-08-24T21:38:24;4.00;;;3.80;;
21589;SDS011;10957;50.968;6.828;2023-08-24T21:43:25;4.05;;;3.85;;
21589;SDS011;10957;50.968;6.828;2023-08-24T21:48:27;4.22;;;4.03;;
21589;SDS011;10957;50.968;6.828;2023-08-24T21:53:28;4.97;;;4.68;;
21589;SDS011;10957;50.968;6.828;2023-08-24T21:58:29;4.15;;;3.95;;
21589;SDS011;10957;50.968;6.828;2023-08-24T22:03:31;4.50;;;4.30;;
21589;SDS011;10957;50.968;6.828;2023-08-24T22:08:33;4.18;;;3.97;;
21589;SDS011;10957;50.968;6.828;2023-08-24T22:13:34;4.10;;;3.90;;
21589;SDS011;10957;50.968;6.828;2023-08-24T22:18:35;28.92;;;4.75;;
21589;SDS011;10957;50.968;6.828;2023-08-24T22:23:37;4.13;;;3.92;;
21589;SDS011;10957;50.968;6.828;2023-08-24T22:28:38;4.47;;;4.28;;
21589;SDS011;10957;50.968;6.828;2023-08-24T22:33:39;6.53;;;4.75;;
21589;SDS011;10957;50.968;6.828;2023-08-24T22:38:42;7.57;;;4.28;;
21589;SDS011;10957;50.968;6.828;2023-08-24T22:43:43;4.63;;;4.43;;
21589;SDS011;10957;50.968;6.828;2023-08-24T22:48:45;4.30;;;4.10;;
21589;SDS011;10957;50.968;6.828;2023-08-24T22:53:46;4.40;;;4.20;;
21589;SDS011;10957;50.968;6.828;2023-08-24T22:58:47;3.90;;;3.80;;
21589;SDS011;10957;50.968;6.828;2023-08-24T23:03:49;4.72;;;4.53;;
21589;SDS011;10957;50.968;6.828;2023-08-24T23:08:50;5.07;;;4.82;;
21589;SDS011;10957;50.968;6.828;2023-08-24T23:13:51;4.40;;;4.20;;
21589;SDS011;10957;50.968;6.828;2023-08-24T23:18:53;11.60;;;4.45;;
21589;SDS011;10957;50.968;6.828;2023-08-24T23:23:54;4.63;;;4.43;;
21589;SDS011;10957;50.968;6.828;2023-08-24T23:28:55;4.50;;;4.30;;
21589;SDS011;10957;50.968;6.828;2023-08-24T23:33:56;4.50;;;4.30;;
21589;SDS011;10957;50.968;6.828;2023-08-24T23:39:01;5.03;;;4.82;;
21589;SDS011;10957;50.968;6.828;2023-08-24T23:44:03;4.47;;;4.25;;
21589;SDS011;10957;50.968;6.828;2023-08-24T23:49:05;4.90;;;4.50;;
21589;SDS011;10957;50.968;6.828;2023-08-24T23:54:07;5.88;;;5.53;;
21589;SDS011;10957;50.968;6.828;2023-08-24T23:59:08;4.45;;;4.25;;
